CDW2 weather

Baddeck (Crown Jewel) Airport
Baddeck, Nova Scotia, Canada

Public forecast

Using degrees Celsius for public forecast. Weather courtesy of forecast.io.

Closest aviation weather report (METAR) to Baddeck (Crown Jewel) Airport

Closest report is Sydney / J.A. Douglas McCurdy Airport, 30.6 nm (56.7 km) E. Retrieved 2020/07/09 16:03 UTC (57 minutes ago):

CYQY 091603Z 18011G17KT 3SM -DZ BR BKN006 OVC009 15/14 A3001 RMK ST5ST3 SLP164

Closest aviation forecast (TAF) to Baddeck (Crown Jewel) Airport

Closest forecast is Sydney / J.A. Douglas McCurdy Airport, 30.6 nm (56.7 km) E. Retrieved 2020/07/09 12:45 UTC (4 hours ago):

TAF CYQY 091143Z 0912/0924 16013KT 3SM -RA BR BKN005 OVC020 TEMPO 0912/0915 6SM -RA BR SCT005 OVC020 FM091500 19012KT P6SM SCT006 OVC012 TEMPO 0915/0918 4SM BR BKN006 OVC012 FM091800 19012KT P6SM BKN020 RMK NXT FCST BY 091800Z